createdAt,value
2023-08-21T00:02:22.628Z,2.00
2023-08-21T00:04:50.086Z,1.40
2023-08-21T00:07:17.470Z,1.20
2023-08-21T00:09:44.877Z,1.75
2023-08-21T00:12:12.289Z,1.95
2023-08-21T00:14:39.648Z,1.55
2023-08-21T00:17:07.365Z,1.88
2023-08-21T00:19:35.093Z,1.90
2023-08-21T00:22:02.585Z,2.28
2023-08-21T00:24:30.015Z,2.38
2023-08-21T00:26:57.405Z,1.77
2023-08-21T00:29:25.004Z,1.33
2023-08-21T00:31:52.617Z,1.52
2023-08-21T00:34:22.705Z,1.92
2023-08-21T00:36:50.787Z,1.88
2023-08-21T00:39:18.308Z,1.75
2023-08-21T00:41:45.881Z,1.58
2023-08-21T00:44:13.298Z,1.60
2023-08-21T00:46:40.740Z,1.90
2023-08-21T00:49:08.140Z,1.48
2023-08-21T00:51:35.554Z,1.60
2023-08-21T00:54:02.979Z,1.73
2023-08-21T00:56:30.490Z,1.23
2023-08-21T00:58:58.020Z,1.40
2023-08-21T01:01:27.003Z,1.00
2023-08-21T01:03:54.568Z,1.60
2023-08-21T01:06:21.994Z,1.42
2023-08-21T01:14:21.521Z,1.23
2023-08-21T01:16:50.964Z,0.98
2023-08-21T01:19:33.405Z,0.90
2023-08-21T01:22:01.932Z,0.90
2023-08-21T01:24:29.640Z,1.15
2023-08-21T01:26:57.294Z,1.20
2023-08-21T01:29:25.141Z,0.82
2023-08-21T01:32:01.138Z,1.20
2023-08-21T01:34:30.776Z,0.90
2023-08-21T01:36:58.249Z,1.00
2023-08-21T01:39:26.601Z,1.00
2023-08-21T01:41:54.136Z,1.00
2023-08-21T01:44:22.363Z,0.98
2023-08-21T01:46:49.763Z,0.90
2023-08-21T01:49:17.274Z,0.70
2023-08-21T01:51:47.928Z,0.95
2023-08-21T01:54:15.428Z,1.17
2023-08-21T01:56:42.955Z,0.77
2023-08-21T01:59:10.448Z,0.80
2023-08-21T02:01:37.964Z,0.90
2023-08-21T02:04:05.564Z,1.17
2023-08-21T02:06:33.106Z,0.75
2023-08-21T02:09:00.572Z,0.40
2023-08-21T02:11:27.976Z,0.70
2023-08-21T02:13:55.617Z,0.40
2023-08-21T02:16:23.480Z,0.47
2023-08-21T02:18:50.826Z,0.63
2023-08-21T02:21:21.630Z,0.30
2023-08-21T02:23:49.154Z,0.43
2023-08-21T02:26:17.943Z,0.50
2023-08-21T02:28:45.321Z,0.47
2023-08-21T02:31:13.787Z,0.47
2023-08-21T02:33:41.217Z,0.20
2023-08-21T02:36:08.788Z,0.40
2023-08-21T02:38:37.118Z,0.30
2023-08-21T02:41:05.657Z,0.20
2023-08-21T02:43:33.241Z,0.50
2023-08-21T02:46:00.724Z,0.30
2023-08-21T02:48:28.122Z,0.35
2023-08-21T02:50:55.590Z,0.47
2023-08-21T02:53:23.005Z,0.45
2023-08-21T02:55:50.355Z,0.50
2023-08-21T02:58:17.749Z,0.32
2023-08-21T03:00:45.188Z,0.30
2023-08-21T03:03:13.009Z,0.55
2023-08-21T03:05:40.460Z,0.30
2023-08-21T03:08:08.116Z,0.60
2023-08-21T03:10:35.757Z,0.30
2023-08-21T03:13:03.631Z,0.43
2023-08-21T03:15:31.270Z,0.22
2023-08-21T03:17:59.010Z,0.50
2023-08-21T03:20:26.477Z,0.45
2023-08-21T03:22:53.934Z,1.10
2023-08-21T03:25:21.330Z,0.20
2023-08-21T03:27:50.761Z,0.28
2023-08-21T03:30:18.963Z,0.13
2023-08-21T03:32:46.537Z,0.45
2023-08-21T03:35:14.079Z,0.50
2023-08-21T03:37:41.709Z,0.35
2023-08-21T03:40:14.054Z,0.60
2023-08-21T03:42:44.504Z,0.47
2023-08-21T03:45:12.425Z,0.40
2023-08-21T03:47:40.561Z,0.85
2023-08-21T03:50:16.036Z,0.40
2023-08-21T03:52:43.716Z,0.60
2023-08-21T03:55:11.370Z,0.65
2023-08-21T03:57:38.756Z,0.90
2023-08-21T04:00:09.305Z,0.52
2023-08-21T04:02:53.384Z,0.50
2023-08-21T04:05:21.076Z,0.60
2023-08-21T04:07:48.598Z,0.82
2023-08-21T04:10:17.411Z,0.70
2023-08-21T04:12:45.061Z,0.80
2023-08-21T04:15:12.599Z,1.27
2023-08-21T04:17:40.133Z,1.00
2023-08-21T04:20:08.355Z,0.70
2023-08-21T04:22:35.876Z,0.60
2023-08-21T04:25:03.861Z,0.70
2023-08-21T04:27:32.317Z,0.90
2023-08-21T04:30:00.737Z,0.65
2023-08-21T04:32:29.741Z,0.82
2023-08-21T04:34:57.621Z,0.80
2023-08-21T04:37:25.479Z,0.55
2023-08-21T04:39:54.079Z,0.35
2023-08-21T04:42:22.413Z,0.90
2023-08-21T04:44:50.372Z,0.47
2023-08-21T04:49:59.268Z,0.60
2023-08-21T04:52:28.547Z,0.60
2023-08-21T04:54:55.998Z,0.50
2023-08-21T04:57:23.830Z,1.05
2023-08-21T04:59:52.082Z,0.77
2023-08-21T05:02:21.598Z,0.70
2023-08-21T05:04:50.919Z,0.60
2023-08-21T05:07:18.476Z,0.22
2023-08-21T05:09:45.885Z,0.77
2023-08-21T05:12:14.839Z,0.65
2023-08-21T05:14:42.480Z,0.43
2023-08-21T05:17:10.054Z,0.38
2023-08-21T05:19:37.789Z,0.75
2023-08-21T05:22:05.283Z,0.50
2023-08-21T05:24:33.536Z,0.70
2023-08-21T05:27:05.981Z,0.40
2023-08-21T05:29:33.985Z,0.45
2023-08-21T05:32:02.024Z,0.90
2023-08-21T05:34:30.182Z,0.40
2023-08-21T05:36:57.713Z,1.02
2023-08-21T05:39:26.440Z,0.30
2023-08-21T05:41:54.657Z,0.75
2023-08-21T05:44:22.498Z,0.52
2023-08-21T05:46:50.165Z,0.65
2023-08-21T05:49:18.289Z,0.65
2023-08-21T05:51:46.450Z,0.50
2023-08-21T05:54:14.342Z,0.40
2023-08-21T05:56:43.171Z,0.40
2023-08-21T05:59:12.576Z,0.80
2023-08-21T06:01:40.446Z,0.68
2023-08-21T06:04:08.028Z,0.63
2023-08-21T06:06:42.002Z,0.80
2023-08-21T06:09:10.348Z,0.77
2023-08-21T06:11:40.113Z,0.70
2023-08-21T06:14:08.300Z,0.82
2023-08-21T06:16:36.182Z,0.77
2023-08-21T06:19:04.083Z,0.57
2023-08-21T06:21:31.842Z,0.70
2023-08-21T06:24:19.460Z,0.65
2023-08-21T06:27:41.600Z,0.80
2023-08-21T06:30:38.316Z,0.88
2023-08-21T06:33:48.596Z,0.70
2023-08-21T06:36:46.596Z,0.80
2023-08-21T06:39:59.682Z,0.70
2023-08-21T06:42:47.591Z,0.65
2023-08-21T06:45:22.557Z,0.40
2023-08-21T06:48:03.350Z,1.05
2023-08-21T06:51:07.027Z,0.65
2023-08-21T06:54:02.527Z,0.73
2023-08-21T06:56:43.689Z,0.88
2023-08-21T06:59:26.818Z,0.55
2023-08-21T07:01:54.381Z,0.75
2023-08-21T07:04:49.167Z,0.73
2023-08-21T07:07:16.804Z,0.65
2023-08-21T07:13:38.911Z,0.65
2023-08-21T07:16:33.689Z,0.70
2023-08-21T07:19:59.179Z,0.50
2023-08-21T07:22:54.133Z,0.73
2023-08-21T07:25:29.983Z,0.60
2023-08-21T07:28:40.459Z,0.70
2023-08-21T07:31:48.362Z,0.52
2023-08-21T07:37:11.354Z,0.65
2023-08-21T07:43:14.280Z,0.52
2023-08-21T07:46:17.713Z,0.63
2023-08-21T07:49:05.103Z,0.60
2023-08-21T07:51:58.418Z,0.60
2023-08-21T07:58:13.828Z,0.50
2023-08-21T08:01:16.150Z,0.50
2023-08-21T08:04:07.040Z,0.40
2023-08-21T08:06:34.833Z,0.50
2023-08-21T08:09:02.422Z,0.32
2023-08-21T08:11:30.207Z,0.40
2023-08-21T08:14:11.218Z,0.45
2023-08-21T08:16:53.703Z,0.70
2023-08-21T08:19:29.565Z,0.50
2023-08-21T08:22:04.674Z,0.47
2023-08-21T08:24:55.361Z,0.50
2023-08-21T08:28:22.176Z,0.70
2023-08-21T08:31:35.083Z,0.50
2023-08-21T08:34:24.945Z,0.57
2023-08-21T08:36:52.706Z,0.50
2023-08-21T08:39:20.500Z,0.40
2023-08-21T08:42:15.901Z,0.20
2023-08-21T08:45:13.881Z,0.50
2023-08-21T08:47:50.064Z,0.60
2023-08-21T08:50:18.123Z,0.40
2023-08-21T08:53:16.820Z,0.30
2023-08-21T08:56:37.182Z,0.60
2023-08-21T08:59:19.731Z,0.40
2023-08-21T09:02:03.149Z,0.20
2023-08-21T09:08:20.203Z,0.35
2023-08-21T09:10:48.088Z,0.50
2023-08-21T09:13:18.725Z,0.50
2023-08-21T09:16:13.585Z,0.38
2023-08-21T09:19:01.148Z,0.40
2023-08-21T09:21:42.669Z,0.30
2023-08-21T09:25:19.308Z,0.30
2023-08-21T09:32:15.066Z,0.50
2023-08-21T09:35:15.786Z,0.60
2023-08-21T09:41:39.535Z,0.50
2023-08-21T09:44:44.744Z,0.52
2023-08-21T09:47:35.326Z,0.50
2023-08-21T09:50:03.006Z,0.43
2023-08-21T09:52:45.565Z,0.50
2023-08-21T09:56:11.065Z,0.35
2023-08-21T09:59:40.580Z,0.50
2023-08-21T10:02:39.226Z,0.45
2023-08-21T10:05:55.095Z,0.35
2023-08-21T10:08:46.658Z,0.20
2023-08-21T10:11:53.693Z,0.25
2023-08-21T10:14:45.082Z,0.30
2023-08-21T10:18:02.788Z,0.30
2023-08-21T10:21:23.917Z,0.45
2023-08-21T10:32:37.632Z,0.47
2023-08-21T10:35:30.031Z,0.80
2023-08-21T10:38:34.645Z,0.50
2023-08-21T10:41:48.141Z,0.40
2023-08-21T10:44:49.021Z,0.85
2023-08-21T10:48:12.960Z,0.30
2023-08-21T10:51:38.899Z,0.50
2023-08-21T10:58:02.783Z,0.68
2023-08-21T11:02:03.149Z,0.57
2023-08-21T11:05:04.867Z,0.60
2023-08-21T11:08:43.181Z,0.50
2023-08-21T11:12:34.014Z,0.40
2023-08-21T11:15:50.779Z,0.50
2023-08-21T11:18:40.418Z,0.70
2023-08-21T11:21:42.845Z,0.43
2023-08-21T11:27:48.097Z,0.40
2023-08-21T11:31:12.022Z,0.40
2023-08-21T11:34:29.055Z,0.45
2023-08-21T11:37:33.957Z,0.80
2023-08-21T11:40:17.037Z,0.60
2023-08-21T11:43:18.687Z,1.00
2023-08-21T11:46:55.097Z,0.50
2023-08-21T11:49:51.575Z,0.40
2023-08-21T11:53:20.198Z,0.50
2023-08-21T11:56:22.501Z,0.60
2023-08-21T11:59:49.204Z,0.70
2023-08-21T12:03:36.010Z,0.55
2023-08-21T12:06:33.880Z,0.90
2023-08-21T12:09:24.547Z,0.70
2023-08-21T12:15:16.584Z,0.47
2023-08-21T12:18:17.628Z,0.60
2023-08-21T12:21:43.185Z,0.40
2023-08-21T12:24:51.269Z,0.57
2023-08-21T12:27:42.361Z,0.77
2023-08-21T12:34:50.407Z,0.50
2023-08-21T12:37:42.102Z,0.43
2023-08-21T12:40:28.700Z,0.63
2023-08-21T12:43:39.405Z,0.70
2023-08-21T12:46:56.220Z,0.60
2023-08-21T12:50:18.381Z,0.60
2023-08-21T12:52:53.521Z,0.65
2023-08-21T12:55:54.580Z,0.55
2023-08-21T13:02:39.816Z,0.55
2023-08-21T13:05:27.123Z,0.40
2023-08-21T13:08:23.956Z,0.43
2023-08-21T13:11:05.094Z,0.28
2023-08-21T13:13:55.059Z,0.40
2023-08-21T13:16:56.669Z,0.30
2023-08-21T13:19:55.544Z,0.60
2023-08-21T13:23:34.458Z,0.55
2023-08-21T13:26:37.143Z,0.57
2023-08-21T13:29:51.404Z,0.52
2023-08-21T13:33:57.830Z,0.47
2023-08-21T13:36:52.851Z,0.40
2023-08-21T13:45:55.517Z,0.98
2023-08-21T13:48:38.830Z,0.52
2023-08-21T13:51:37.822Z,0.50
2023-08-21T13:54:41.018Z,0.70
2023-08-21T13:58:05.223Z,0.30
2023-08-21T14:00:48.603Z,0.32
2023-08-21T14:04:21.808Z,0.30
2023-08-21T14:07:31.454Z,0.35
2023-08-21T14:10:44.587Z,0.50
2023-08-21T14:13:27.002Z,0.60
2023-08-21T14:16:26.405Z,0.40
2023-08-21T14:19:33.745Z,0.50
2023-08-21T14:22:32.019Z,0.70
2023-08-21T14:25:22.697Z,0.47
2023-08-21T14:28:51.865Z,0.30
2023-08-21T14:31:34.361Z,0.32
2023-08-21T14:34:35.594Z,0.43
2023-08-21T14:37:34.541Z,0.32
2023-08-21T14:40:29.242Z,0.80
2023-08-21T14:46:42.878Z,0.30
2023-08-21T14:49:38.781Z,0.28
2023-08-21T14:52:38.968Z,0.40
2023-08-21T14:55:07.074Z,0.45
2023-08-21T14:57:42.561Z,0.40
2023-08-21T15:00:11.464Z,0.50
2023-08-21T15:02:39.647Z,0.45
2023-08-21T15:05:42.975Z,0.57
2023-08-21T15:08:10.769Z,0.45
2023-08-21T15:11:01.572Z,0.60
2023-08-21T15:13:46.420Z,0.73
2023-08-21T15:19:48.501Z,0.70
2023-08-21T15:27:12.364Z,0.77
2023-08-21T15:30:19.141Z,0.57
2023-08-21T15:33:14.329Z,0.47
2023-08-21T15:35:42.126Z,0.52
2023-08-21T15:38:09.888Z,0.68
2023-08-21T15:40:37.416Z,0.90
2023-08-21T15:43:06.062Z,0.52
2023-08-21T15:45:33.717Z,0.65
2023-08-21T15:48:02.223Z,0.88
2023-08-21T15:50:29.976Z,0.93
2023-08-21T15:53:20.860Z,0.63
2023-08-21T15:56:35.686Z,0.88
2023-08-21T15:59:51.327Z,0.70
2023-08-21T16:03:06.028Z,0.65
2023-08-21T16:06:13.432Z,0.70
2023-08-21T16:09:36.157Z,0.63
2023-08-21T16:15:52.941Z,0.75
2023-08-21T16:19:02.698Z,0.45
2023-08-21T16:21:57.974Z,0.50
2023-08-21T16:24:40.459Z,0.75
2023-08-21T16:27:31.670Z,0.57
2023-08-21T16:29:59.463Z,0.70
2023-08-21T16:32:27.149Z,0.70
2023-08-21T16:34:55.444Z,0.93
2023-08-21T16:37:22.989Z,0.70
2023-08-21T16:39:50.451Z,0.90
2023-08-21T16:42:18.062Z,0.93
2023-08-21T16:44:45.633Z,1.00
2023-08-21T16:47:13.762Z,0.90
2023-08-21T16:49:41.622Z,0.82
2023-08-21T16:52:10.700Z,0.90
2023-08-21T16:54:54.381Z,1.15
2023-08-21T16:57:29.648Z,0.70
2023-08-21T16:59:57.698Z,1.00
2023-08-21T17:02:26.165Z,0.90
2023-08-21T17:04:55.448Z,1.70
2023-08-21T17:07:23.546Z,1.17
2023-08-21T17:09:51.608Z,1.50
2023-08-21T17:12:58.846Z,1.30
2023-08-21T17:15:32.605Z,1.42
2023-08-21T17:18:14.114Z,1.08
2023-08-21T17:25:12.278Z,1.13
2023-08-21T17:28:16.232Z,1.38
2023-08-21T17:31:37.695Z,1.15
2023-08-21T17:34:46.440Z,1.33
2023-08-21T17:38:05.424Z,1.13
2023-08-21T17:41:03.124Z,0.90
2023-08-21T17:44:22.444Z,1.20
2023-08-21T17:47:23.718Z,0.50
2023-08-21T17:50:27.519Z,0.80
2023-08-21T17:53:18.566Z,1.20
2023-08-21T17:56:42.865Z,0.90
2023-08-21T18:00:21.923Z,1.35
2023-08-21T18:03:12.148Z,0.95
2023-08-21T18:06:29.201Z,1.10
2023-08-21T18:08:57.884Z,1.80
2023-08-21T18:12:06.265Z,4.00
2023-08-21T18:19:36.938Z,8.50
2023-08-21T18:22:46.529Z,10.57
2023-08-21T18:25:53.667Z,10.35
2023-08-21T18:29:06.035Z,8.98
2023-08-21T18:32:38.094Z,10.07
2023-08-21T18:35:56.944Z,9.70
2023-08-21T18:38:59.627Z,9.18
2023-08-21T18:42:13.202Z,5.70
2023-08-21T18:48:34.351Z,3.50
2023-08-21T18:52:23.672Z,2.97
2023-08-21T18:55:39.353Z,1.88
2023-08-21T18:59:05.333Z,2.10
2023-08-21T19:02:15.154Z,1.25
2023-08-21T19:05:19.955Z,1.73
2023-08-21T19:07:57.496Z,2.30
2023-08-21T19:11:13.632Z,1.65
2023-08-21T19:14:15.479Z,1.13
2023-08-21T19:17:12.752Z,1.70
2023-08-21T19:20:16.345Z,1.85
2023-08-21T19:22:57.908Z,1.27
2023-08-21T19:26:11.885Z,1.13
2023-08-21T19:29:21.493Z,1.23
2023-08-21T19:32:34.247Z,0.73
2023-08-21T19:35:10.645Z,0.90
2023-08-21T19:37:39.309Z,1.17
2023-08-21T19:40:54.819Z,0.82
2023-08-21T19:43:30.012Z,0.90
2023-08-21T19:46:19.780Z,1.70
2023-08-21T19:49:43.335Z,0.73
2023-08-21T19:52:38.598Z,0.90
2023-08-21T19:55:07.214Z,1.08
2023-08-21T19:57:43.064Z,0.88
2023-08-21T20:00:34.436Z,0.90
2023-08-21T20:03:03.589Z,1.00
2023-08-21T20:05:40.755Z,1.00
2023-08-21T20:08:10.763Z,0.90
2023-08-21T20:13:09.263Z,0.70
2023-08-21T20:15:37.483Z,0.93
2023-08-21T20:18:12.875Z,0.52
2023-08-21T20:21:04.391Z,0.60
2023-08-21T20:23:32.898Z,0.77
2023-08-21T20:26:00.633Z,0.82
2023-08-21T20:28:28.337Z,0.98
2023-08-21T20:31:05.280Z,0.90
2023-08-21T20:33:34.011Z,0.63
2023-08-21T20:36:04.455Z,1.10
2023-08-21T20:38:32.046Z,1.10
2023-08-21T20:41:05.256Z,0.80
2023-08-21T20:43:34.890Z,1.10
2023-08-21T20:52:18.310Z,0.95
2023-08-21T21:01:09.959Z,0.93
2023-08-21T21:06:33.157Z,0.90
2023-08-21T21:09:20.386Z,1.25
2023-08-21T21:11:47.807Z,0.82
2023-08-21T21:14:16.756Z,0.80
2023-08-21T21:16:45.181Z,0.98
2023-08-21T21:19:32.610Z,1.10
2023-08-21T21:21:59.976Z,0.88
2023-08-21T21:27:40.104Z,0.82
2023-08-21T21:33:22.116Z,0.82
2023-08-21T21:35:49.503Z,0.85
2023-08-21T21:41:28.986Z,0.90
2023-08-21T21:44:16.134Z,0.73
2023-08-21T21:47:03.346Z,0.63
2023-08-21T21:49:50.796Z,1.10
2023-08-21T21:52:18.297Z,0.73
2023-08-21T21:54:45.923Z,0.57
2023-08-21T21:57:13.421Z,0.70
2023-08-21T22:00:00.737Z,0.63
2023-08-21T22:02:32.058Z,0.70
2023-08-21T22:07:28.010Z,0.90
2023-08-21T22:09:55.532Z,0.68
2023-08-21T22:12:23.922Z,0.55
2023-08-21T22:14:51.606Z,0.93
2023-08-21T22:20:51.461Z,0.82
2023-08-21T22:23:19.044Z,1.08
2023-08-21T22:25:46.653Z,0.70
2023-08-21T22:28:14.655Z,0.93
2023-08-21T22:30:42.182Z,0.57
2023-08-21T22:36:05.061Z,1.10
2023-08-21T22:38:32.740Z,1.02
2023-08-21T22:41:04.153Z,0.93
2023-08-21T22:43:32.080Z,0.70
2023-08-21T22:45:59.714Z,1.23
2023-08-21T22:51:40.483Z,0.75
2023-08-21T23:03:29.417Z,0.88
2023-08-21T23:05:57.678Z,1.23
2023-08-21T23:08:26.573Z,1.08
2023-08-21T23:11:14.605Z,1.35
2023-08-21T23:13:42.217Z,0.70
2023-08-21T23:16:09.777Z,1.48
2023-08-21T23:24:45.843Z,1.20
2023-08-21T23:27:33.328Z,1.30
2023-08-21T23:30:01.998Z,1.40
2023-08-21T23:32:32.331Z,0.95
2023-08-21T23:34:59.720Z,1.08
2023-08-21T23:40:39.850Z,1.23
2023-08-21T23:46:19.470Z,1.27
2023-08-21T23:48:47.200Z,1.92
2023-08-21T23:51:14.921Z,1.65
